sensor_id;sensor_type;location;lat;lon;timestamp;P1;durP1;ratioP1;P2;durP2;ratioP2
34317;SDS011;20582;52.196;20.952;2023-05-23T00:01:21;11.63;;;6.55;;
34317;SDS011;20582;52.196;20.952;2023-05-23T00:03:48;12.30;;;7.13;;
34317;SDS011;20582;52.196;20.952;2023-05-23T00:06:14;13.07;;;6.35;;
34317;SDS011;20582;52.196;20.952;2023-05-23T00:08:45;12.60;;;6.72;;
34317;SDS011;20582;52.196;20.952;2023-05-23T00:11:11;12.43;;;6.85;;
34317;SDS011;20582;52.196;20.952;2023-05-23T00:13:37;13.70;;;6.93;;
34317;SDS011;20582;52.196;20.952;2023-05-23T00:16:03;13.60;;;7.00;;
34317;SDS011;20582;52.196;20.952;2023-05-23T00:18:29;12.73;;;6.82;;
34317;SDS011;20582;52.196;20.952;2023-05-23T00:20:56;11.93;;;6.68;;
34317;SDS011;20582;52.196;20.952;2023-05-23T00:23:23;10.88;;;6.85;;
34317;SDS011;20582;52.196;20.952;2023-05-23T00:25:49;12.25;;;7.28;;
34317;SDS011;20582;52.196;20.952;2023-05-23T00:28:18;13.25;;;7.53;;
34317;SDS011;20582;52.196;20.952;2023-05-23T00:30:44;12.85;;;6.88;;
34317;SDS011;20582;52.196;20.952;2023-05-23T00:33:10;18.17;;;7.60;;
34317;SDS011;20582;52.196;20.952;2023-05-23T00:35:38;16.20;;;7.30;;
34317;SDS011;20582;52.196;20.952;2023-05-23T00:38:04;13.00;;;7.35;;
34317;SDS011;20582;52.196;20.952;2023-05-23T00:40:31;12.23;;;7.10;;
34317;SDS011;20582;52.196;20.952;2023-05-23T00:42:58;12.75;;;7.10;;
34317;SDS011;20582;52.196;20.952;2023-05-23T00:45:24;12.18;;;7.15;;
34317;SDS011;20582;52.196;20.952;2023-05-23T00:47:50;12.98;;;7.30;;
34317;SDS011;20582;52.196;20.952;2023-05-23T00:50:16;15.63;;;7.30;;
34317;SDS011;20582;52.196;20.952;2023-05-23T00:52:43;10.60;;;6.88;;
34317;SDS011;20582;52.196;20.952;2023-05-23T00:55:10;15.57;;;7.40;;
34317;SDS011;20582;52.196;20.952;2023-05-23T00:57:36;21.20;;;7.50;;
34317;SDS011;20582;52.196;20.952;2023-05-23T01:00:04;13.73;;;7.72;;
34317;SDS011;20582;52.196;20.952;2023-05-23T01:02:34;12.10;;;7.20;;
34317;SDS011;20582;52.196;20.952;2023-05-23T01:05:03;12.63;;;6.78;;
34317;SDS011;20582;52.196;20.952;2023-05-23T01:07:29;14.35;;;7.38;;
34317;SDS011;20582;52.196;20.952;2023-05-23T01:09:55;15.93;;;8.07;;
34317;SDS011;20582;52.196;20.952;2023-05-23T01:12:25;12.13;;;7.47;;
34317;SDS011;20582;52.196;20.952;2023-05-23T01:14:58;12.65;;;7.70;;
34317;SDS011;20582;52.196;20.952;2023-05-23T01:17:30;12.30;;;7.18;;
34317;SDS011;20582;52.196;20.952;2023-05-23T01:19:58;13.50;;;7.70;;
34317;SDS011;20582;52.196;20.952;2023-05-23T01:25:02;13.63;;;8.15;;
34317;SDS011;20582;52.196;20.952;2023-05-23T01:27:46;14.05;;;7.45;;
34317;SDS011;20582;52.196;20.952;2023-05-23T01:30:14;14.98;;;8.35;;
34317;SDS011;20582;52.196;20.952;2023-05-23T01:32:42;16.95;;;8.25;;
34317;SDS011;20582;52.196;20.952;2023-05-23T01:35:09;14.23;;;7.90;;
34317;SDS011;20582;52.196;20.952;2023-05-23T01:37:35;14.25;;;8.18;;
34317;SDS011;20582;52.196;20.952;2023-05-23T01:40:01;14.73;;;7.70;;
34317;SDS011;20582;52.196;20.952;2023-05-23T01:42:27;12.80;;;7.82;;
34317;SDS011;20582;52.196;20.952;2023-05-23T01:44:53;14.18;;;8.20;;
34317;SDS011;20582;52.196;20.952;2023-05-23T01:47:23;14.05;;;7.43;;
34317;SDS011;20582;52.196;20.952;2023-05-23T01:49:49;14.32;;;8.00;;
34317;SDS011;20582;52.196;20.952;2023-05-23T01:52:15;13.75;;;7.90;;
34317;SDS011;20582;52.196;20.952;2023-05-23T01:54:41;14.52;;;8.10;;
34317;SDS011;20582;52.196;20.952;2023-05-23T01:57:08;13.00;;;7.53;;
34317;SDS011;20582;52.196;20.952;2023-05-23T01:59:34;12.30;;;7.53;;
34317;SDS011;20582;52.196;20.952;2023-05-23T02:02:02;13.43;;;7.70;;
34317;SDS011;20582;52.196;20.952;2023-05-23T02:04:28;14.68;;;8.38;;
34317;SDS011;20582;52.196;20.952;2023-05-23T02:06:54;17.33;;;7.63;;
34317;SDS011;20582;52.196;20.952;2023-05-23T02:09:20;12.13;;;8.00;;
34317;SDS011;20582;52.196;20.952;2023-05-23T02:11:46;15.68;;;8.20;;
34317;SDS011;20582;52.196;20.952;2023-05-23T02:14:12;15.68;;;7.28;;
34317;SDS011;20582;52.196;20.952;2023-05-23T02:16:38;19.27;;;7.47;;
34317;SDS011;20582;52.196;20.952;2023-05-23T02:19:04;13.25;;;7.43;;
34317;SDS011;20582;52.196;20.952;2023-05-23T02:21:30;15.77;;;7.68;;
34317;SDS011;20582;52.196;20.952;2023-05-23T02:23:56;12.63;;;7.95;;
34317;SDS011;20582;52.196;20.952;2023-05-23T02:26:22;16.60;;;7.88;;
34317;SDS011;20582;52.196;20.952;2023-05-23T02:28:48;12.25;;;7.10;;
34317;SDS011;20582;52.196;20.952;2023-05-23T02:31:14;14.20;;;7.05;;
34317;SDS011;20582;52.196;20.952;2023-05-23T02:33:41;13.80;;;7.68;;
34317;SDS011;20582;52.196;20.952;2023-05-23T02:36:07;14.25;;;7.28;;
34317;SDS011;20582;52.196;20.952;2023-05-23T02:38:33;12.63;;;7.78;;
34317;SDS011;20582;52.196;20.952;2023-05-23T02:40:59;14.10;;;7.05;;
34317;SDS011;20582;52.196;20.952;2023-05-23T02:43:25;13.98;;;7.65;;
34317;SDS011;20582;52.196;20.952;2023-05-23T02:45:51;12.73;;;7.43;;
34317;SDS011;20582;52.196;20.952;2023-05-23T02:48:17;12.90;;;6.82;;
34317;SDS011;20582;52.196;20.952;2023-05-23T02:50:43;12.00;;;7.15;;
34317;SDS011;20582;52.196;20.952;2023-05-23T02:53:09;15.20;;;7.65;;
34317;SDS011;20582;52.196;20.952;2023-05-23T02:55:35;13.15;;;7.40;;
34317;SDS011;20582;52.196;20.952;2023-05-23T02:58:02;12.10;;;7.18;;
34317;SDS011;20582;52.196;20.952;2023-05-23T03:00:29;12.35;;;7.50;;
34317;SDS011;20582;52.196;20.952;2023-05-23T03:02:56;13.93;;;7.43;;
34317;SDS011;20582;52.196;20.952;2023-05-23T03:05:22;13.90;;;7.38;;
34317;SDS011;20582;52.196;20.952;2023-05-23T03:07:48;12.95;;;7.65;;
34317;SDS011;20582;52.196;20.952;2023-05-23T03:10:16;14.25;;;8.05;;
34317;SDS011;20582;52.196;20.952;2023-05-23T03:12:42;16.33;;;8.18;;
34317;SDS011;20582;52.196;20.952;2023-05-23T03:15:08;13.77;;;7.82;;
34317;SDS011;20582;52.196;20.952;2023-05-23T03:17:34;12.20;;;7.45;;
34317;SDS011;20582;52.196;20.952;2023-05-23T03:20:00;14.50;;;7.80;;
34317;SDS011;20582;52.196;20.952;2023-05-23T03:22:27;15.80;;;7.93;;
34317;SDS011;20582;52.196;20.952;2023-05-23T03:24:53;13.57;;;7.40;;
34317;SDS011;20582;52.196;20.952;2023-05-23T03:27:19;11.73;;;7.00;;
34317;SDS011;20582;52.196;20.952;2023-05-23T03:29:45;15.40;;;7.60;;
34317;SDS011;20582;52.196;20.952;2023-05-23T03:32:12;14.95;;;7.57;;
34317;SDS011;20582;52.196;20.952;2023-05-23T03:34:38;16.50;;;7.82;;
34317;SDS011;20582;52.196;20.952;2023-05-23T03:37:04;14.02;;;7.38;;
34317;SDS011;20582;52.196;20.952;2023-05-23T03:39:30;16.00;;;7.38;;
34317;SDS011;20582;52.196;20.952;2023-05-23T03:41:56;12.75;;;6.80;;
34317;SDS011;20582;52.196;20.952;2023-05-23T03:44:22;16.35;;;8.00;;
34317;SDS011;20582;52.196;20.952;2023-05-23T03:46:48;12.45;;;7.57;;
34317;SDS011;20582;52.196;20.952;2023-05-23T03:49:14;13.18;;;7.72;;
34317;SDS011;20582;52.196;20.952;2023-05-23T03:51:40;12.00;;;6.97;;
34317;SDS011;20582;52.196;20.952;2023-05-23T03:54:07;15.57;;;7.03;;
34317;SDS011;20582;52.196;20.952;2023-05-23T03:56:33;13.80;;;7.00;;
34317;SDS011;20582;52.196;20.952;2023-05-23T03:58:59;13.00;;;6.97;;
34317;SDS011;20582;52.196;20.952;2023-05-23T04:01:25;16.42;;;7.68;;
34317;SDS011;20582;52.196;20.952;2023-05-23T04:03:51;15.20;;;7.47;;
34317;SDS011;20582;52.196;20.952;2023-05-23T04:06:17;15.45;;;6.88;;
34317;SDS011;20582;52.196;20.952;2023-05-23T04:08:44;14.25;;;7.10;;
34317;SDS011;20582;52.196;20.952;2023-05-23T04:11:10;14.90;;;7.30;;
34317;SDS011;20582;52.196;20.952;2023-05-23T04:13:36;11.68;;;6.80;;
34317;SDS011;20582;52.196;20.952;2023-05-23T04:16:02;18.45;;;6.68;;
34317;SDS011;20582;52.196;20.952;2023-05-23T04:18:29;12.90;;;6.30;;
34317;SDS011;20582;52.196;20.952;2023-05-23T04:20:57;13.30;;;6.18;;
34317;SDS011;20582;52.196;20.952;2023-05-23T04:23:23;12.20;;;6.00;;
34317;SDS011;20582;52.196;20.952;2023-05-23T04:25:49;11.45;;;5.78;;
34317;SDS011;20582;52.196;20.952;2023-05-23T04:28:15;12.05;;;6.57;;
34317;SDS011;20582;52.196;20.952;2023-05-23T04:30:42;10.80;;;5.78;;
34317;SDS011;20582;52.196;20.952;2023-05-23T04:33:08;13.75;;;6.00;;
34317;SDS011;20582;52.196;20.952;2023-05-23T04:35:34;11.55;;;5.75;;
34317;SDS011;20582;52.196;20.952;2023-05-23T04:38:03;13.77;;;6.38;;
34317;SDS011;20582;52.196;20.952;2023-05-23T04:40:29;12.35;;;6.32;;
34317;SDS011;20582;52.196;20.952;2023-05-23T04:42:55;16.40;;;6.00;;
34317;SDS011;20582;52.196;20.952;2023-05-23T04:45:21;13.50;;;6.30;;
34317;SDS011;20582;52.196;20.952;2023-05-23T04:47:47;11.38;;;6.38;;
34317;SDS011;20582;52.196;20.952;2023-05-23T04:50:13;18.48;;;8.43;;
34317;SDS011;20582;52.196;20.952;2023-05-23T04:52:39;14.63;;;7.00;;
34317;SDS011;20582;52.196;20.952;2023-05-23T04:55:06;13.07;;;6.30;;
34317;SDS011;20582;52.196;20.952;2023-05-23T04:57:32;14.65;;;6.35;;
34317;SDS011;20582;52.196;20.952;2023-05-23T04:59:58;12.48;;;6.40;;
34317;SDS011;20582;52.196;20.952;2023-05-23T05:02:25;14.73;;;6.80;;
34317;SDS011;20582;52.196;20.952;2023-05-23T05:04:51;16.65;;;6.22;;
34317;SDS011;20582;52.196;20.952;2023-05-23T05:07:17;11.27;;;6.25;;
34317;SDS011;20582;52.196;20.952;2023-05-23T05:09:43;11.05;;;6.22;;
34317;SDS011;20582;52.196;20.952;2023-05-23T05:12:09;14.13;;;6.60;;
34317;SDS011;20582;52.196;20.952;2023-05-23T05:14:35;15.00;;;6.38;;
34317;SDS011;20582;52.196;20.952;2023-05-23T05:17:01;16.45;;;6.10;;
34317;SDS011;20582;52.196;20.952;2023-05-23T05:19:27;14.82;;;6.03;;
34317;SDS011;20582;52.196;20.952;2023-05-23T05:21:53;10.80;;;5.53;;
34317;SDS011;20582;52.196;20.952;2023-05-23T05:24:21;14.88;;;5.95;;
34317;SDS011;20582;52.196;20.952;2023-05-23T05:26:47;15.80;;;5.68;;
34317;SDS011;20582;52.196;20.952;2023-05-23T05:29:13;13.15;;;6.13;;
34317;SDS011;20582;52.196;20.952;2023-05-23T05:31:40;22.42;;;6.38;;
34317;SDS011;20582;52.196;20.952;2023-05-23T05:34:07;18.30;;;6.05;;
34317;SDS011;20582;52.196;20.952;2023-05-23T05:36:33;14.35;;;5.72;;
34317;SDS011;20582;52.196;20.952;2023-05-23T05:38:59;18.27;;;5.88;;
34317;SDS011;20582;52.196;20.952;2023-05-23T05:41:26;16.20;;;5.85;;
34317;SDS011;20582;52.196;20.952;2023-05-23T05:43:52;17.73;;;6.07;;
34317;SDS011;20582;52.196;20.952;2023-05-23T05:46:18;12.00;;;5.90;;
34317;SDS011;20582;52.196;20.952;2023-05-23T05:48:44;12.50;;;5.07;;
34317;SDS011;20582;52.196;20.952;2023-05-23T05:51:11;13.73;;;5.43;;
34317;SDS011;20582;52.196;20.952;2023-05-23T05:53:37;11.75;;;5.13;;
34317;SDS011;20582;52.196;20.952;2023-05-23T05:56:03;13.90;;;5.63;;
34317;SDS011;20582;52.196;20.952;2023-05-23T05:58:29;12.40;;;5.10;;
34317;SDS011;20582;52.196;20.952;2023-05-23T06:00:55;15.15;;;5.20;;
34317;SDS011;20582;52.196;20.952;2023-05-23T06:03:21;16.77;;;5.45;;
34317;SDS011;20582;52.196;20.952;2023-05-23T06:05:48;11.85;;;5.05;;
34317;SDS011;20582;52.196;20.952;2023-05-23T06:08:14;13.85;;;5.00;;
34317;SDS011;20582;52.196;20.952;2023-05-23T06:10:40;18.13;;;5.18;;
34317;SDS011;20582;52.196;20.952;2023-05-23T06:13:06;10.95;;;4.72;;
34317;SDS011;20582;52.196;20.952;2023-05-23T06:15:32;8.82;;;4.45;;
34317;SDS011;20582;52.196;20.952;2023-05-23T06:17:58;10.50;;;5.18;;
34317;SDS011;20582;52.196;20.952;2023-05-23T06:20:24;12.00;;;5.15;;
34317;SDS011;20582;52.196;20.952;2023-05-23T06:22:50;10.00;;;4.38;;
34317;SDS011;20582;52.196;20.952;2023-05-23T06:25:15;11.15;;;5.03;;
34317;SDS011;20582;52.196;20.952;2023-05-23T06:27:42;8.43;;;4.90;;
34317;SDS011;20582;52.196;20.952;2023-05-23T06:30:10;11.43;;;4.80;;
34317;SDS011;20582;52.196;20.952;2023-05-23T06:32:36;9.75;;;4.18;;
34317;SDS011;20582;52.196;20.952;2023-05-23T06:35:02;12.68;;;4.50;;
34317;SDS011;20582;52.196;20.952;2023-05-23T06:37:28;8.95;;;3.88;;
34317;SDS011;20582;52.196;20.952;2023-05-23T06:39:54;10.43;;;4.80;;
34317;SDS011;20582;52.196;20.952;2023-05-23T06:42:20;10.43;;;4.85;;
34317;SDS011;20582;52.196;20.952;2023-05-23T06:44:46;10.05;;;4.45;;
34317;SDS011;20582;52.196;20.952;2023-05-23T06:47:12;10.40;;;4.47;;
34317;SDS011;20582;52.196;20.952;2023-05-23T06:49:38;8.48;;;4.35;;
34317;SDS011;20582;52.196;20.952;2023-05-23T06:52:04;8.35;;;4.00;;
34317;SDS011;20582;52.196;20.952;2023-05-23T06:54:30;10.25;;;4.07;;
34317;SDS011;20582;52.196;20.952;2023-05-23T06:56:56;12.82;;;4.63;;
34317;SDS011;20582;52.196;20.952;2023-05-23T06:59:22;9.57;;;4.30;;
34317;SDS011;20582;52.196;20.952;2023-05-23T07:01:48;8.65;;;4.10;;
34317;SDS011;20582;52.196;20.952;2023-05-23T07:04:14;6.40;;;3.80;;
34317;SDS011;20582;52.196;20.952;2023-05-23T07:06:40;10.15;;;4.05;;
34317;SDS011;20582;52.196;20.952;2023-05-23T07:09:06;8.30;;;4.20;;
34317;SDS011;20582;52.196;20.952;2023-05-23T07:11:32;8.63;;;3.80;;
34317;SDS011;20582;52.196;20.952;2023-05-23T07:13:59;12.02;;;4.03;;
34317;SDS011;20582;52.196;20.952;2023-05-23T07:16:25;8.25;;;4.00;;
34317;SDS011;20582;52.196;20.952;2023-05-23T07:18:51;8.63;;;4.03;;
34317;SDS011;20582;52.196;20.952;2023-05-23T07:21:17;6.68;;;3.83;;
34317;SDS011;20582;52.196;20.952;2023-05-23T07:23:43;8.10;;;3.72;;
34317;SDS011;20582;52.196;20.952;2023-05-23T07:26:09;8.40;;;3.60;;
34317;SDS011;20582;52.196;20.952;2023-05-23T07:28:35;10.40;;;3.97;;
34317;SDS011;20582;52.196;20.952;2023-05-23T07:31:01;10.95;;;4.07;;
34317;SDS011;20582;52.196;20.952;2023-05-23T07:33:27;10.43;;;3.95;;
34317;SDS011;20582;52.196;20.952;2023-05-23T07:35:53;9.60;;;3.83;;
34317;SDS011;20582;52.196;20.952;2023-05-23T07:38:19;11.20;;;4.32;;
34317;SDS011;20582;52.196;20.952;2023-05-23T07:40:45;15.93;;;4.35;;
34317;SDS011;20582;52.196;20.952;2023-05-23T07:43:11;13.77;;;3.70;;
34317;SDS011;20582;52.196;20.952;2023-05-23T07:45:37;9.10;;;3.85;;
34317;SDS011;20582;52.196;20.952;2023-05-23T07:48:03;8.57;;;3.70;;
34317;SDS011;20582;52.196;20.952;2023-05-23T07:50:29;10.80;;;3.45;;
34317;SDS011;20582;52.196;20.952;2023-05-23T07:52:55;9.73;;;3.63;;
34317;SDS011;20582;52.196;20.952;2023-05-23T07:55:21;9.02;;;3.95;;
34317;SDS011;20582;52.196;20.952;2023-05-23T07:57:48;9.27;;;3.28;;
34317;SDS011;20582;52.196;20.952;2023-05-23T08:00:14;7.47;;;3.47;;
34317;SDS011;20582;52.196;20.952;2023-05-23T08:02:41;9.00;;;3.50;;
34317;SDS011;20582;52.196;20.952;2023-05-23T08:05:07;7.65;;;3.50;;
34317;SDS011;20582;52.196;20.952;2023-05-23T08:07:33;7.95;;;3.33;;
34317;SDS011;20582;52.196;20.952;2023-05-23T08:09:59;8.68;;;3.35;;
34317;SDS011;20582;52.196;20.952;2023-05-23T08:12:25;9.35;;;3.80;;
34317;SDS011;20582;52.196;20.952;2023-05-23T08:14:51;10.90;;;3.60;;
34317;SDS011;20582;52.196;20.952;2023-05-23T08:17:17;10.85;;;3.67;;
34317;SDS011;20582;52.196;20.952;2023-05-23T08:19:43;5.85;;;3.40;;
34317;SDS011;20582;52.196;20.952;2023-05-23T08:22:10;9.20;;;3.38;;
34317;SDS011;20582;52.196;20.952;2023-05-23T08:24:36;9.95;;;3.42;;
34317;SDS011;20582;52.196;20.952;2023-05-23T08:27:02;8.80;;;3.80;;
34317;SDS011;20582;52.196;20.952;2023-05-23T08:29:28;8.32;;;3.47;;
34317;SDS011;20582;52.196;20.952;2023-05-23T08:31:54;6.60;;;3.38;;
34317;SDS011;20582;52.196;20.952;2023-05-23T08:34:20;6.57;;;3.80;;
34317;SDS011;20582;52.196;20.952;2023-05-23T08:36:46;7.70;;;3.78;;
34317;SDS011;20582;52.196;20.952;2023-05-23T08:39:12;6.72;;;3.70;;
34317;SDS011;20582;52.196;20.952;2023-05-23T08:41:38;8.43;;;3.88;;
34317;SDS011;20582;52.196;20.952;2023-05-23T08:44:04;8.27;;;4.13;;
34317;SDS011;20582;52.196;20.952;2023-05-23T08:46:31;7.50;;;3.83;;
34317;SDS011;20582;52.196;20.952;2023-05-23T08:48:58;9.07;;;3.83;;
34317;SDS011;20582;52.196;20.952;2023-05-23T08:51:25;8.73;;;3.78;;
34317;SDS011;20582;52.196;20.952;2023-05-23T08:53:51;9.18;;;3.80;;
34317;SDS011;20582;52.196;20.952;2023-05-23T08:56:20;8.18;;;3.63;;
34317;SDS011;20582;52.196;20.952;2023-05-23T08:58:46;8.10;;;3.30;;
34317;SDS011;20582;52.196;20.952;2023-05-23T09:01:12;6.43;;;3.53;;
34317;SDS011;20582;52.196;20.952;2023-05-23T09:03:39;6.70;;;3.53;;
34317;SDS011;20582;52.196;20.952;2023-05-23T09:06:09;5.63;;;3.13;;
34317;SDS011;20582;52.196;20.952;2023-05-23T09:08:35;7.28;;;3.40;;
34317;SDS011;20582;52.196;20.952;2023-05-23T09:11:02;7.22;;;3.50;;
34317;SDS011;20582;52.196;20.952;2023-05-23T09:13:29;7.57;;;3.33;;
34317;SDS011;20582;52.196;20.952;2023-05-23T09:16:02;7.07;;;3.38;;
34317;SDS011;20582;52.196;20.952;2023-05-23T09:18:36;5.53;;;3.28;;
34317;SDS011;20582;52.196;20.952;2023-05-23T09:21:03;6.82;;;3.28;;
34317;SDS011;20582;52.196;20.952;2023-05-23T09:23:32;5.20;;;3.35;;
34317;SDS011;20582;52.196;20.952;2023-05-23T09:26:08;9.60;;;3.83;;
34317;SDS011;20582;52.196;20.952;2023-05-23T09:28:35;6.07;;;3.40;;
34317;SDS011;20582;52.196;20.952;2023-05-23T09:31:02;7.40;;;3.20;;
34317;SDS011;20582;52.196;20.952;2023-05-23T09:33:35;7.85;;;3.63;;
34317;SDS011;20582;52.196;20.952;2023-05-23T09:36:05;6.38;;;3.35;;
34317;SDS011;20582;52.196;20.952;2023-05-23T09:38:31;5.80;;;2.92;;
34317;SDS011;20582;52.196;20.952;2023-05-23T09:40:58;7.20;;;3.47;;
34317;SDS011;20582;52.196;20.952;2023-05-23T09:43:24;5.32;;;3.40;;
34317;SDS011;20582;52.196;20.952;2023-05-23T09:45:52;8.35;;;4.00;;
34317;SDS011;20582;52.196;20.952;2023-05-23T09:48:19;5.70;;;3.67;;
34317;SDS011;20582;52.196;20.952;2023-05-23T09:50:53;9.82;;;3.40;;
34317;SDS011;20582;52.196;20.952;2023-05-23T09:53:19;6.53;;;3.60;;
34317;SDS011;20582;52.196;20.952;2023-05-23T09:55:47;8.25;;;3.58;;
34317;SDS011;20582;52.196;20.952;2023-05-23T09:58:14;6.88;;;3.33;;
34317;SDS011;20582;52.196;20.952;2023-05-23T10:00:42;8.02;;;3.50;;
34317;SDS011;20582;52.196;20.952;2023-05-23T10:05:46;6.50;;;3.30;;
34317;SDS011;20582;52.196;20.952;2023-05-23T10:08:17;5.05;;;3.50;;
34317;SDS011;20582;52.196;20.952;2023-05-23T10:13:24;6.43;;;3.45;;
34317;SDS011;20582;52.196;20.952;2023-05-23T10:15:50;7.25;;;3.47;;
34317;SDS011;20582;52.196;20.952;2023-05-23T10:18:20;7.47;;;3.33;;
34317;SDS011;20582;52.196;20.952;2023-05-23T10:20:50;6.50;;;3.20;;
34317;SDS011;20582;52.196;20.952;2023-05-23T10:23:18;6.65;;;3.38;;
34317;SDS011;20582;52.196;20.952;2023-05-23T10:25:45;9.40;;;3.70;;
34317;SDS011;20582;52.196;20.952;2023-05-23T10:28:11;6.90;;;3.50;;
34317;SDS011;20582;52.196;20.952;2023-05-23T10:30:38;7.75;;;3.20;;
34317;SDS011;20582;52.196;20.952;2023-05-23T10:33:04;4.63;;;3.08;;
34317;SDS011;20582;52.196;20.952;2023-05-23T10:40:57;7.18;;;3.38;;
34317;SDS011;20582;52.196;20.952;2023-05-23T10:43:30;6.30;;;3.53;;
34317;SDS011;20582;52.196;20.952;2023-05-23T10:45:59;7.30;;;3.58;;
34317;SDS011;20582;52.196;20.952;2023-05-23T10:51:00;5.30;;;3.17;;
34317;SDS011;20582;52.196;20.952;2023-05-23T10:53:28;5.38;;;3.70;;
34317;SDS011;20582;52.196;20.952;2023-05-23T10:55:54;7.18;;;3.25;;
34317;SDS011;20582;52.196;20.952;2023-05-23T10:58:20;5.18;;;3.45;;
34317;SDS011;20582;52.196;20.952;2023-05-23T11:00:51;6.05;;;3.40;;
34317;SDS011;20582;52.196;20.952;2023-05-23T11:03:18;7.32;;;3.60;;
34317;SDS011;20582;52.196;20.952;2023-05-23T11:05:51;7.60;;;3.60;;
34317;SDS011;20582;52.196;20.952;2023-05-23T11:08:18;5.75;;;3.42;;
34317;SDS011;20582;52.196;20.952;2023-05-23T11:11:00;6.43;;;3.25;;
34317;SDS011;20582;52.196;20.952;2023-05-23T11:19:35;8.57;;;3.17;;
34317;SDS011;20582;52.196;20.952;2023-05-23T11:21:45;6.97;;;3.20;;
34317;SDS011;20582;52.196;20.952;2023-05-23T11:24:13;10.63;;;4.28;;
34317;SDS011;20582;52.196;20.952;2023-05-23T11:26:40;5.40;;;3.40;;
34317;SDS011;20582;52.196;20.952;2023-05-23T11:29:16;7.18;;;3.72;;
34317;SDS011;20582;52.196;20.952;2023-05-23T11:31:42;4.90;;;3.45;;
34317;SDS011;20582;52.196;20.952;2023-05-23T11:34:08;8.57;;;3.35;;
34317;SDS011;20582;52.196;20.952;2023-05-23T11:36:34;8.63;;;3.50;;
34317;SDS011;20582;52.196;20.952;2023-05-23T11:39:01;8.27;;;3.55;;
34317;SDS011;20582;52.196;20.952;2023-05-23T11:41:30;6.22;;;3.40;;
34317;SDS011;20582;52.196;20.952;2023-05-23T11:43:57;7.93;;;3.63;;
34317;SDS011;20582;52.196;20.952;2023-05-23T11:46:25;6.97;;;3.70;;
34317;SDS011;20582;52.196;20.952;2023-05-23T11:48:51;5.80;;;3.50;;
34317;SDS011;20582;52.196;20.952;2023-05-23T11:51:17;8.20;;;3.65;;
34317;SDS011;20582;52.196;20.952;2023-05-23T11:53:46;5.38;;;3.35;;
34317;SDS011;20582;52.196;20.952;2023-05-23T11:56:13;7.43;;;3.33;;
34317;SDS011;20582;52.196;20.952;2023-05-23T11:58:39;6.22;;;3.42;;
34317;SDS011;20582;52.196;20.952;2023-05-23T12:01:07;8.80;;;3.58;;
34317;SDS011;20582;52.196;20.952;2023-05-23T12:03:34;5.97;;;3.30;;
34317;SDS011;20582;52.196;20.952;2023-05-23T12:06:02;5.72;;;3.55;;
34317;SDS011;20582;52.196;20.952;2023-05-23T12:08:28;6.00;;;3.28;;
34317;SDS011;20582;52.196;20.952;2023-05-23T12:10:57;6.50;;;3.83;;
34317;SDS011;20582;52.196;20.952;2023-05-23T12:13:24;5.18;;;3.40;;
34317;SDS011;20582;52.196;20.952;2023-05-23T12:15:54;8.45;;;3.90;;
34317;SDS011;20582;52.196;20.952;2023-05-23T12:18:20;7.47;;;3.55;;
34317;SDS011;20582;52.196;20.952;2023-05-23T12:20:47;6.00;;;4.03;;
34317;SDS011;20582;52.196;20.952;2023-05-23T12:23:20;8.02;;;3.78;;
34317;SDS011;20582;52.196;20.952;2023-05-23T12:25:53;7.05;;;3.58;;
34317;SDS011;20582;52.196;20.952;2023-05-23T12:28:19;8.15;;;3.63;;
34317;SDS011;20582;52.196;20.952;2023-05-23T12:30:45;6.15;;;4.00;;
34317;SDS011;20582;52.196;20.952;2023-05-23T12:33:13;8.45;;;3.60;;
34317;SDS011;20582;52.196;20.952;2023-05-23T12:35:42;7.30;;;3.10;;
34317;SDS011;20582;52.196;20.952;2023-05-23T12:38:09;6.13;;;3.72;;
34317;SDS011;20582;52.196;20.952;2023-05-23T12:40:40;6.03;;;3.60;;
34317;SDS011;20582;52.196;20.952;2023-05-23T12:43:07;7.43;;;3.58;;
34317;SDS011;20582;52.196;20.952;2023-05-23T12:45:34;6.22;;;3.50;;
34317;SDS011;20582;52.196;20.952;2023-05-23T12:48:04;5.90;;;3.83;;
34317;SDS011;20582;52.196;20.952;2023-05-23T12:50:31;8.00;;;3.80;;
34317;SDS011;20582;52.196;20.952;2023-05-23T12:52:57;6.90;;;3.90;;
34317;SDS011;20582;52.196;20.952;2023-05-23T12:55:23;5.70;;;3.50;;
34317;SDS011;20582;52.196;20.952;2023-05-23T12:57:49;7.40;;;4.05;;
34317;SDS011;20582;52.196;20.952;2023-05-23T13:00:15;5.88;;;3.70;;
34317;SDS011;20582;52.196;20.952;2023-05-23T13:02:41;7.95;;;3.97;;
34317;SDS011;20582;52.196;20.952;2023-05-23T13:05:09;7.38;;;4.05;;
34317;SDS011;20582;52.196;20.952;2023-05-23T13:07:35;6.50;;;3.47;;
34317;SDS011;20582;52.196;20.952;2023-05-23T13:10:01;8.90;;;3.70;;
34317;SDS011;20582;52.196;20.952;2023-05-23T13:12:28;9.02;;;4.00;;
34317;SDS011;20582;52.196;20.952;2023-05-23T13:14:55;10.20;;;4.20;;
34317;SDS011;20582;52.196;20.952;2023-05-23T13:17:22;7.32;;;3.60;;
34317;SDS011;20582;52.196;20.952;2023-05-23T13:19:48;10.52;;;3.97;;
34317;SDS011;20582;52.196;20.952;2023-05-23T13:22:14;6.57;;;3.60;;
34317;SDS011;20582;52.196;20.952;2023-05-23T13:24:40;9.10;;;3.88;;
34317;SDS011;20582;52.196;20.952;2023-05-23T13:27:07;8.23;;;3.95;;
34317;SDS011;20582;52.196;20.952;2023-05-23T13:29:33;8.30;;;4.03;;
34317;SDS011;20582;52.196;20.952;2023-05-23T13:31:59;7.85;;;3.80;;
34317;SDS011;20582;52.196;20.952;2023-05-23T13:34:25;7.78;;;3.58;;
34317;SDS011;20582;52.196;20.952;2023-05-23T13:36:52;9.20;;;3.80;;
34317;SDS011;20582;52.196;20.952;2023-05-23T13:39:18;9.32;;;4.20;;
34317;SDS011;20582;52.196;20.952;2023-05-23T13:41:48;10.18;;;3.97;;
34317;SDS011;20582;52.196;20.952;2023-05-23T13:44:14;7.05;;;3.97;;
34317;SDS011;20582;52.196;20.952;2023-05-23T13:46:41;7.93;;;3.80;;
34317;SDS011;20582;52.196;20.952;2023-05-23T13:49:06;7.72;;;3.80;;
34317;SDS011;20582;52.196;20.952;2023-05-23T13:51:32;7.97;;;4.15;;
34317;SDS011;20582;52.196;20.952;2023-05-23T13:54:01;7.95;;;3.75;;
34317;SDS011;20582;52.196;20.952;2023-05-23T13:56:27;5.63;;;3.90;;
34317;SDS011;20582;52.196;20.952;2023-05-23T13:58:53;8.77;;;4.13;;
34317;SDS011;20582;52.196;20.952;2023-05-23T14:01:19;8.05;;;3.85;;
34317;SDS011;20582;52.196;20.952;2023-05-23T14:03:45;7.00;;;4.20;;
34317;SDS011;20582;52.196;20.952;2023-05-23T14:06:11;7.30;;;4.38;;
34317;SDS011;20582;52.196;20.952;2023-05-23T14:08:36;8.95;;;4.35;;
34317;SDS011;20582;52.196;20.952;2023-05-23T14:11:02;8.93;;;4.00;;
34317;SDS011;20582;52.196;20.952;2023-05-23T14:13:28;10.93;;;4.20;;
34317;SDS011;20582;52.196;20.952;2023-05-23T14:15:54;8.73;;;4.30;;
34317;SDS011;20582;52.196;20.952;2023-05-23T14:18:20;9.13;;;4.28;;
34317;SDS011;20582;52.196;20.952;2023-05-23T14:20:46;7.22;;;4.13;;
34317;SDS011;20582;52.196;20.952;2023-05-23T14:23:12;8.68;;;4.05;;
34317;SDS011;20582;52.196;20.952;2023-05-23T14:25:38;8.80;;;4.20;;
34317;SDS011;20582;52.196;20.952;2023-05-23T14:28:04;11.18;;;4.43;;
34317;SDS011;20582;52.196;20.952;2023-05-23T14:30:30;10.90;;;4.60;;
34317;SDS011;20582;52.196;20.952;2023-05-23T14:32:56;7.78;;;4.10;;
34317;SDS011;20582;52.196;20.952;2023-05-23T14:35:22;7.90;;;4.20;;
34317;SDS011;20582;52.196;20.952;2023-05-23T14:37:50;9.27;;;4.28;;
34317;SDS011;20582;52.196;20.952;2023-05-23T14:40:16;7.07;;;4.40;;
34317;SDS011;20582;52.196;20.952;2023-05-23T14:42:42;8.05;;;4.43;;
34317;SDS011;20582;52.196;20.952;2023-05-23T14:45:08;7.60;;;4.07;;
34317;SDS011;20582;52.196;20.952;2023-05-23T14:47:34;8.02;;;4.47;;